createdAt,value
2018-02-13T00:02:09.902Z,88.80
2018-02-13T00:04:46.206Z,88.80
2018-02-13T00:07:20.770Z,88.90
2018-02-13T00:09:54.659Z,88.70
2018-02-13T00:12:28.659Z,88.40
2018-02-13T00:15:06.462Z,88.70
2018-02-13T00:17:40.338Z,88.80
2018-02-13T00:20:14.701Z,88.60
2018-02-13T00:22:50.417Z,88.70
2018-02-13T00:25:32.332Z,88.50
2018-02-13T00:28:07.029Z,88.90
2018-02-13T00:30:42.138Z,88.70
2018-02-13T00:33:16.144Z,88.60
2018-02-13T00:35:53.212Z,88.90
2018-02-13T00:38:27.608Z,89.00
2018-02-13T00:41:02.019Z,88.90
2018-02-13T00:43:39.902Z,89.00
2018-02-13T00:46:15.680Z,89.20
2018-02-13T00:48:50.228Z,89.10
2018-02-13T00:51:24.045Z,88.70
2018-02-13T00:53:58.667Z,88.50
2018-02-13T00:56:32.803Z,88.70
2018-02-13T00:59:07.145Z,88.50
2018-02-13T01:01:41.227Z,88.80
2018-02-13T01:04:16.892Z,88.80
2018-02-13T01:06:51.347Z,88.90
2018-02-13T01:09:25.891Z,88.60
2018-02-13T01:12:00.064Z,88.30
2018-02-13T01:14:35.903Z,88.50
2018-02-13T01:17:10.550Z,88.60
2018-02-13T01:19:44.515Z,88.60
2018-02-13T01:22:18.508Z,88.80
2018-02-13T01:24:55.955Z,88.40
2018-02-13T01:27:30.655Z,88.50
2018-02-13T01:30:04.659Z,88.60
2018-02-13T01:32:39.779Z,88.60
2018-02-13T01:35:18.040Z,88.70
2018-02-13T01:37:52.683Z,89.00
2018-02-13T01:40:26.619Z,88.70
2018-02-13T01:43:00.844Z,88.70
2018-02-13T01:45:37.767Z,88.40
2018-02-13T01:48:12.403Z,88.50
2018-02-13T01:50:45.940Z,88.50
2018-02-13T01:53:23.266Z,88.20
2018-02-13T01:55:56.900Z,88.00
2018-02-13T01:58:31.252Z,87.90
2018-02-13T02:01:05.536Z,88.10
2018-02-13T02:03:43.522Z,88.30
2018-02-13T02:06:17.624Z,88.10
2018-02-13T02:08:51.847Z,88.20
2018-02-13T02:11:26.645Z,87.90
2018-02-13T02:14:02.536Z,87.60
2018-02-13T02:16:36.475Z,87.00
2018-02-13T02:19:10.828Z,86.90
2018-02-13T02:21:45.398Z,87.20
2018-02-13T02:24:25.821Z,87.10
2018-02-13T02:27:00.902Z,86.00
2018-02-13T02:29:35.168Z,86.00
2018-02-13T02:32:09.621Z,86.60
2018-02-13T02:34:47.235Z,87.10
2018-02-13T02:37:21.080Z,87.50
2018-02-13T02:39:55.106Z,87.20
2018-02-13T02:42:40.083Z,87.30
2018-02-13T02:45:17.743Z,86.70
2018-02-13T02:47:51.579Z,86.40
2018-02-13T02:50:26.114Z,86.60
2018-02-13T02:53:00.096Z,85.90
2018-02-13T02:55:34.735Z,86.40
2018-02-13T02:58:08.552Z,86.00
2018-02-13T03:00:43.511Z,85.80
2018-02-13T03:03:18.618Z,85.70
2018-02-13T03:05:52.715Z,86.60
2018-02-13T03:08:27.167Z,86.90
2018-02-13T03:11:02.588Z,85.90
2018-02-13T03:13:41.013Z,86.00
2018-02-13T03:16:14.799Z,86.00
2018-02-13T03:18:48.647Z,86.80
2018-02-13T03:21:22.114Z,86.70
2018-02-13T03:23:59.502Z,86.60
2018-02-13T03:26:34.087Z,86.90
2018-02-13T03:29:08.401Z,87.00
2018-02-13T03:31:41.807Z,86.60
2018-02-13T03:34:18.371Z,86.70
2018-02-13T03:36:52.287Z,86.40
2018-02-13T03:39:26.180Z,86.80
2018-02-13T03:41:59.780Z,86.50
2018-02-13T03:44:35.085Z,86.50
2018-02-13T03:47:10.412Z,86.60
2018-02-13T03:49:44.687Z,86.90
2018-02-13T03:52:18.904Z,86.90
2018-02-13T03:54:53.697Z,85.90
2018-02-13T03:57:28.418Z,86.00
2018-02-13T04:00:02.684Z,85.70
2018-02-13T04:02:36.235Z,85.70
2018-02-13T04:05:13.999Z,85.30
2018-02-13T04:07:47.956Z,85.10
2018-02-13T04:10:22.215Z,85.40
2018-02-13T04:12:57.895Z,85.90
2018-02-13T04:15:32.272Z,86.10
2018-02-13T04:18:06.340Z,85.90
2018-02-13T04:20:41.791Z,87.10
2018-02-13T04:23:16.923Z,87.00
2018-02-13T04:25:51.563Z,86.50
2018-02-13T04:28:25.555Z,85.80
2018-02-13T04:30:59.188Z,85.70
2018-02-13T04:33:35.867Z,85.70
2018-02-13T04:36:09.872Z,85.30
2018-02-13T04:38:44.357Z,85.80
2018-02-13T04:41:18.535Z,85.90
2018-02-13T04:43:58.287Z,85.90
2018-02-13T04:46:32.744Z,85.40
2018-02-13T04:49:06.948Z,85.30
2018-02-13T04:51:41.319Z,85.20
2018-02-13T04:54:15.929Z,85.60
2018-02-13T04:56:49.632Z,86.60
2018-02-13T04:59:23.919Z,87.00
2018-02-13T05:01:57.740Z,87.00
2018-02-13T05:04:32.276Z,87.10
2018-02-13T05:07:06.032Z,86.60
2018-02-13T05:09:40.462Z,86.00
2018-02-13T05:12:14.582Z,86.00
2018-02-13T05:14:50.768Z,86.10
2018-02-13T05:17:25.022Z,86.00
2018-02-13T05:19:59.335Z,86.10
2018-02-13T05:22:33.099Z,86.00
2018-02-13T05:25:08.987Z,85.90
2018-02-13T05:27:44.539Z,86.40
2018-02-13T05:30:18.676Z,85.90
2018-02-13T05:32:54.790Z,86.50
2018-02-13T05:35:28.486Z,86.60
2018-02-13T05:38:02.639Z,86.30
2018-02-13T05:40:35.800Z,86.00
2018-02-13T05:43:10.264Z,86.40
2018-02-13T05:45:44.634Z,86.30
2018-02-13T05:48:19.528Z,86.30
2018-02-13T05:50:54.155Z,86.10
2018-02-13T05:53:32.335Z,86.60
2018-02-13T05:56:06.965Z,86.10
2018-02-13T05:58:41.100Z,86.00
2018-02-13T06:01:15.761Z,86.10
2018-02-13T06:03:56.056Z,86.10
2018-02-13T06:06:30.584Z,86.20
2018-02-13T06:09:04.021Z,86.20
2018-02-13T06:11:38.663Z,86.10
2018-02-13T06:14:14.020Z,85.90
2018-02-13T06:16:50.003Z,85.80
2018-02-13T06:19:25.368Z,85.70
2018-02-13T06:21:59.072Z,85.20
2018-02-13T06:24:34.229Z,85.30
2018-02-13T06:27:08.840Z,86.00
2018-02-13T06:29:43.605Z,84.80
2018-02-13T06:32:17.255Z,84.50
2018-02-13T06:34:52.618Z,84.40
2018-02-13T06:37:26.646Z,84.60
2018-02-13T06:40:00.481Z,84.30
2018-02-13T06:42:34.770Z,84.40
2018-02-13T06:45:08.939Z,84.10
2018-02-13T06:47:42.771Z,83.80
2018-02-13T06:50:16.655Z,83.20
2018-02-13T06:52:51.027Z,83.30
2018-02-13T06:55:25.472Z,83.40
2018-02-13T06:57:59.619Z,83.40
2018-02-13T07:00:34.116Z,82.70
2018-02-13T07:03:13.286Z,82.40
2018-02-13T07:05:47.320Z,80.80
2018-02-13T07:08:21.404Z,80.90
2018-02-13T07:10:56.195Z,81.30
2018-02-13T07:13:32.540Z,81.50
2018-02-13T07:16:06.545Z,81.20
2018-02-13T07:18:40.148Z,79.40
2018-02-13T07:21:14.248Z,79.40
2018-02-13T07:23:52.279Z,79.30
2018-02-13T07:26:26.037Z,79.70
2018-02-13T07:28:59.591Z,79.80
2018-02-13T07:31:35.051Z,78.80
2018-02-13T07:34:12.494Z,79.10
2018-02-13T07:36:47.426Z,78.80
2018-02-13T07:39:23.728Z,78.30
2018-02-13T07:41:59.302Z,78.40
2018-02-13T07:44:38.952Z,78.30
2018-02-13T07:47:12.483Z,78.00
2018-02-13T07:49:46.640Z,78.30
2018-02-13T07:52:20.868Z,78.30
2018-02-13T07:54:54.845Z,78.50
2018-02-13T07:57:28.439Z,78.10
2018-02-13T08:00:02.271Z,76.70
2018-02-13T08:02:36.372Z,76.10
2018-02-13T08:05:11.049Z,76.00
2018-02-13T08:07:46.261Z,76.10
2018-02-13T08:10:20.036Z,76.00
2018-02-13T08:12:54.138Z,75.30
2018-02-13T08:15:28.739Z,75.00
2018-02-13T08:18:03.913Z,73.90
2018-02-13T08:20:38.776Z,73.90
2018-02-13T08:23:12.921Z,74.20
2018-02-13T08:25:47.492Z,73.20
2018-02-13T08:28:21.901Z,72.00
2018-02-13T08:30:55.976Z,74.20
2018-02-13T08:33:30.876Z,73.20
2018-02-13T08:36:04.771Z,72.50
2018-02-13T08:38:38.455Z,73.70
2018-02-13T08:41:12.223Z,72.90
2018-02-13T08:43:51.024Z,72.80
2018-02-13T08:46:24.531Z,73.60
2018-02-13T08:48:58.930Z,73.30
2018-02-13T08:51:32.783Z,73.20
2018-02-13T08:54:07.783Z,72.00
2018-02-13T08:56:41.721Z,72.90
2018-02-13T08:59:15.877Z,71.20
2018-02-13T09:01:49.892Z,70.70
2018-02-13T09:04:24.550Z,71.00
2018-02-13T09:06:57.620Z,71.20
2018-02-13T09:09:32.571Z,71.60
2018-02-13T09:12:06.684Z,71.60
2018-02-13T09:14:40.872Z,71.00
2018-02-13T09:17:15.979Z,70.70
2018-02-13T09:19:50.096Z,70.20
2018-02-13T09:22:25.945Z,72.30
2018-02-13T09:24:59.406Z,71.90
2018-02-13T09:27:34.000Z,70.20
2018-02-13T09:30:07.421Z,72.30
2018-02-13T09:32:47.444Z,71.90
2018-02-13T09:35:21.422Z,71.60
2018-02-13T09:37:55.590Z,72.40
2018-02-13T09:40:29.794Z,73.20
2018-02-13T09:43:04.574Z,72.10
2018-02-13T09:45:39.447Z,71.30
2018-02-13T09:48:12.761Z,71.90
2018-02-13T09:50:48.126Z,71.20
2018-02-13T09:53:26.587Z,71.40
2018-02-13T09:56:00.960Z,70.40
2018-02-13T09:58:34.824Z,69.30
2018-02-13T10:01:08.180Z,70.60
2018-02-13T10:03:44.280Z,70.70
2018-02-13T10:06:18.867Z,70.70
2018-02-13T10:08:53.024Z,70.90
2018-02-13T10:11:26.972Z,71.00
2018-02-13T10:14:08.024Z,71.10
2018-02-13T10:16:41.121Z,69.70
2018-02-13T10:19:15.464Z,69.30
2018-02-13T10:21:50.033Z,68.30
2018-02-13T10:24:23.882Z,68.30
2018-02-13T10:26:58.556Z,68.70
2018-02-13T10:29:33.179Z,68.30
2018-02-13T10:32:11.339Z,66.80
2018-02-13T10:34:44.697Z,67.10
2018-02-13T10:37:18.720Z,68.90
2018-02-13T10:39:54.005Z,67.70
2018-02-13T10:42:31.509Z,67.70
2018-02-13T10:45:05.367Z,68.60
2018-02-13T10:47:40.606Z,66.40
2018-02-13T10:50:15.617Z,66.30
2018-02-13T10:52:55.532Z,66.30
2018-02-13T10:55:29.642Z,67.80
2018-02-13T10:58:02.855Z,67.90
2018-02-13T11:00:42.817Z,69.80
2018-02-13T11:03:20.465Z,68.90
2018-02-13T11:05:55.067Z,69.00
2018-02-13T11:08:28.917Z,67.60
2018-02-13T11:11:04.064Z,68.20
2018-02-13T11:13:39.335Z,70.50
2018-02-13T11:16:12.915Z,69.70
2018-02-13T11:18:48.904Z,67.50
2018-02-13T11:21:23.108Z,67.50
2018-02-13T11:23:58.225Z,66.50
2018-02-13T11:26:32.519Z,67.40
2018-02-13T11:29:06.419Z,66.20
2018-02-13T11:31:39.640Z,68.30
2018-02-13T11:34:13.633Z,67.40
2018-02-13T11:36:47.874Z,67.40
2018-02-13T11:39:23.637Z,66.60
2018-02-13T11:42:01.913Z,66.50
2018-02-13T11:44:36.065Z,63.60
2018-02-13T11:47:10.889Z,64.00
2018-02-13T11:49:45.191Z,62.70
2018-02-13T11:52:23.148Z,62.90
2018-02-13T11:54:57.461Z,62.30
2018-02-13T11:57:32.159Z,63.30
2018-02-13T12:00:06.444Z,62.70
2018-02-13T12:02:44.828Z,62.10
2018-02-13T12:05:18.568Z,63.10
2018-02-13T12:07:53.095Z,63.20
2018-02-13T12:10:26.923Z,65.10
2018-02-13T12:13:04.541Z,64.50
2018-02-13T12:15:39.225Z,64.70
2018-02-13T12:18:13.540Z,65.10
2018-02-13T12:20:47.898Z,65.90
2018-02-13T12:23:27.340Z,67.10
2018-02-13T12:26:02.585Z,66.10
2018-02-13T12:28:37.127Z,66.00
2018-02-13T12:31:11.506Z,65.90
2018-02-13T12:33:48.229Z,63.10
2018-02-13T12:36:21.301Z,61.10
2018-02-13T12:38:55.801Z,56.10
2018-02-13T12:41:30.324Z,49.60
2018-02-13T12:44:04.689Z,48.60
2018-02-13T12:46:38.342Z,48.80
2018-02-13T12:49:12.473Z,53.90
2018-02-13T12:51:49.954Z,56.30
2018-02-13T12:54:24.436Z,59.40
2018-02-13T12:56:59.072Z,60.80
2018-02-13T12:59:33.440Z,63.40
2018-02-13T13:02:09.598Z,65.70
2018-02-13T13:04:43.197Z,66.50
2018-02-13T13:07:17.304Z,67.10
2018-02-13T13:09:51.683Z,68.20
2018-02-13T13:12:28.025Z,69.20
2018-02-13T13:15:02.276Z,69.70
2018-02-13T13:17:35.460Z,70.10
2018-02-13T13:20:10.278Z,71.00
2018-02-13T13:22:45.556Z,70.90
2018-02-13T13:25:19.448Z,71.60
2018-02-13T13:27:53.546Z,71.70
2018-02-13T13:30:27.828Z,72.10
2018-02-13T13:33:07.669Z,72.30
2018-02-13T13:35:40.772Z,72.70
2018-02-13T13:38:15.644Z,73.30
2018-02-13T13:40:49.496Z,73.20
2018-02-13T13:43:30.204Z,73.10
2018-02-13T13:46:03.153Z,72.30
2018-02-13T13:48:37.776Z,72.10
2018-02-13T13:51:11.612Z,72.00
2018-02-13T13:53:51.293Z,72.40
2018-02-13T13:56:25.519Z,72.70
2018-02-13T13:59:00.290Z,73.30
2018-02-13T14:01:39.060Z,73.30
2018-02-13T14:04:12.897Z,73.80
2018-02-13T14:06:47.660Z,73.80
2018-02-13T14:09:22.160Z,73.80
2018-02-13T14:12:06.233Z,74.70
2018-02-13T14:14:41.158Z,75.60
2018-02-13T14:17:16.484Z,75.60
2018-02-13T14:19:49.629Z,75.60
2018-02-13T14:22:27.856Z,76.00
2018-02-13T14:25:01.913Z,76.60
2018-02-13T14:27:36.304Z,77.60
2018-02-13T14:30:10.483Z,78.40
2018-02-13T14:32:47.582Z,77.90
2018-02-13T14:35:21.699Z,78.80
2018-02-13T14:37:55.304Z,79.00
2018-02-13T14:40:29.512Z,79.30
2018-02-13T14:43:07.747Z,80.60
2018-02-13T14:45:42.081Z,80.50
2018-02-13T14:48:16.130Z,80.30
2018-02-13T14:50:49.256Z,80.80
2018-02-13T14:53:26.400Z,80.80
2018-02-13T14:56:00.804Z,80.90
2018-02-13T14:58:34.373Z,80.80
2018-02-13T15:01:08.561Z,80.40
2018-02-13T15:03:41.957Z,80.40
2018-02-13T15:06:16.973Z,79.50
2018-02-13T15:08:51.396Z,78.80
2018-02-13T15:11:26.781Z,78.50
2018-02-13T15:14:00.632Z,78.40
2018-02-13T15:16:36.836Z,79.50
2018-02-13T15:19:10.103Z,78.80
2018-02-13T15:21:45.468Z,78.80
2018-02-13T15:24:19.291Z,78.80
2018-02-13T15:26:53.981Z,79.40
2018-02-13T15:29:30.076Z,80.30
2018-02-13T15:32:08.394Z,80.30
2018-02-13T15:34:42.777Z,80.30
2018-02-13T15:37:17.350Z,80.00
2018-02-13T15:39:51.775Z,80.70
2018-02-13T15:42:27.372Z,81.20
2018-02-13T15:45:02.645Z,81.70
2018-02-13T15:47:36.621Z,82.10
2018-02-13T15:50:09.660Z,82.50
2018-02-13T15:52:48.420Z,83.40
2018-02-13T15:55:22.787Z,83.30
2018-02-13T15:57:56.495Z,83.90
2018-02-13T16:00:30.320Z,84.20
2018-02-13T16:03:08.727Z,84.40
2018-02-13T16:05:43.076Z,84.70
2018-02-13T16:08:17.253Z,84.90
2018-02-13T16:10:51.091Z,84.80
2018-02-13T16:13:26.208Z,84.80
2018-02-13T16:16:00.044Z,84.80
2018-02-13T16:18:34.172Z,84.70
2018-02-13T16:21:13.391Z,84.80
2018-02-13T16:23:47.989Z,85.00
2018-02-13T16:26:21.968Z,85.60
2018-02-13T16:28:55.741Z,85.50
2018-02-13T16:31:33.957Z,85.40
2018-02-13T16:34:07.071Z,85.90
2018-02-13T16:36:40.976Z,86.10
2018-02-13T16:39:15.607Z,86.00
2018-02-13T16:41:50.232Z,86.20
2018-02-13T16:44:24.584Z,85.30
2018-02-13T16:46:59.673Z,85.50
2018-02-13T16:49:34.025Z,85.30
2018-02-13T16:52:11.173Z,85.30
2018-02-13T16:54:45.428Z,84.60
2018-02-13T16:57:19.651Z,84.60
2018-02-13T16:59:52.801Z,84.40
2018-02-13T17:02:28.288Z,84.10
2018-02-13T17:05:02.241Z,84.00
2018-02-13T17:07:36.689Z,84.10
2018-02-13T17:10:11.052Z,84.40
2018-02-13T17:12:49.242Z,84.20
2018-02-13T17:15:23.942Z,84.20
2018-02-13T17:17:57.980Z,84.30
2018-02-13T17:20:32.205Z,84.50
2018-02-13T17:23:09.766Z,84.30
2018-02-13T17:25:44.163Z,84.40
2018-02-13T17:28:18.081Z,84.80
2018-02-13T17:30:51.993Z,84.80
2018-02-13T17:33:25.982Z,84.80
2018-02-13T17:36:00.391Z,85.00
2018-02-13T17:38:35.257Z,85.00
2018-02-13T17:41:10.889Z,84.90
2018-02-13T17:43:45.272Z,85.10
2018-02-13T17:46:20.279Z,85.80
2018-02-13T17:48:54.221Z,85.80
2018-02-13T17:51:30.916Z,86.30
2018-02-13T17:54:05.392Z,86.30
2018-02-13T17:56:38.904Z,86.30
2018-02-13T17:59:13.282Z,86.40
2018-02-13T18:01:48.730Z,86.50
2018-02-13T18:04:22.498Z,86.70
2018-02-13T18:06:56.354Z,86.80
2018-02-13T18:09:30.864Z,86.70
2018-02-13T18:12:09.096Z,86.80
2018-02-13T18:14:42.880Z,86.70
2018-02-13T18:17:16.950Z,86.90
2018-02-13T18:19:51.040Z,86.80
2018-02-13T18:22:28.204Z,86.60
2018-02-13T18:25:02.677Z,86.80
2018-02-13T18:27:37.125Z,86.90
2018-02-13T18:30:11.870Z,86.50
2018-02-13T18:32:50.166Z,86.50
2018-02-13T18:35:24.054Z,86.40
2018-02-13T18:37:59.241Z,86.60
2018-02-13T18:40:32.946Z,86.50
2018-02-13T18:43:13.185Z,86.40
2018-02-13T18:45:50.081Z,86.70
2018-02-13T18:48:24.220Z,86.60
2018-02-13T18:51:01.368Z,86.60
2018-02-13T18:53:35.777Z,86.50
2018-02-13T18:56:10.505Z,86.40
2018-02-13T18:58:44.738Z,86.50
2018-02-13T19:01:22.535Z,86.70
2018-02-13T19:03:57.605Z,86.80
2018-02-13T19:06:31.657Z,87.00
2018-02-13T19:09:05.881Z,87.20
2018-02-13T19:11:44.809Z,87.00
2018-02-13T19:14:19.206Z,87.10
2018-02-13T19:19:26.689Z,87.00
2018-02-13T19:22:01.804Z,86.60
2018-02-13T19:24:35.642Z,86.70
2018-02-13T19:27:10.705Z,86.50
2018-02-13T19:29:44.922Z,86.90
2018-02-13T19:32:22.545Z,87.10
2018-02-13T19:34:56.797Z,87.50
2018-02-13T19:37:31.801Z,87.70
2018-02-13T19:40:06.464Z,87.70
2018-02-13T19:42:47.645Z,87.60
2018-02-13T19:45:22.813Z,87.50
2018-02-13T19:47:57.361Z,87.60
2018-02-13T19:50:32.654Z,87.60
2018-02-13T19:53:07.283Z,87.40
2018-02-13T19:55:41.212Z,87.30
2018-02-13T19:58:15.494Z,87.80
2018-02-13T20:00:56.033Z,87.80
2018-02-13T20:03:30.112Z,87.70
2018-02-13T20:06:03.887Z,87.70
2018-02-13T20:08:38.587Z,87.90
2018-02-13T20:11:15.578Z,87.90
2018-02-13T20:13:49.101Z,87.60
2018-02-13T20:16:23.185Z,87.60
2018-02-13T20:18:57.393Z,87.80
2018-02-13T20:21:34.806Z,87.80
2018-02-13T20:24:09.592Z,87.90
2018-02-13T20:26:44.525Z,87.60
2018-02-13T20:29:18.382Z,87.60
2018-02-13T20:31:53.059Z,87.90
2018-02-13T20:34:27.849Z,87.80
2018-02-13T20:37:03.974Z,87.90
2018-02-13T20:39:37.455Z,87.80
2018-02-13T20:42:18.361Z,87.50
2018-02-13T20:44:52.622Z,88.00
2018-02-13T20:47:27.167Z,87.50
2018-02-13T20:50:01.485Z,87.20
2018-02-13T20:52:51.298Z,87.20
2018-02-13T20:55:25.661Z,87.10
2018-02-13T20:58:00.445Z,87.10
2018-02-13T21:00:35.198Z,87.10
2018-02-13T21:03:08.921Z,87.10
2018-02-13T21:05:44.476Z,87.00
2018-02-13T21:08:18.785Z,87.00
2018-02-13T21:10:56.825Z,86.90
2018-02-13T21:13:30.859Z,86.90
2018-02-13T21:16:05.977Z,86.60
2018-02-13T21:18:40.617Z,86.80
2018-02-13T21:21:18.161Z,87.00
2018-02-13T21:23:53.336Z,87.10
2018-02-13T21:26:27.333Z,87.20
2018-02-13T21:29:03.236Z,87.50
2018-02-13T21:31:42.687Z,87.50
2018-02-13T21:34:18.240Z,87.40
2018-02-13T21:36:52.253Z,87.50
2018-02-13T21:39:25.893Z,87.20
2018-02-13T21:41:59.952Z,87.20
2018-02-13T21:44:34.034Z,86.70
2018-02-13T21:47:08.079Z,86.30
2018-02-13T21:49:42.497Z,86.30
2018-02-13T21:52:17.480Z,86.30
2018-02-13T21:54:51.503Z,86.50
2018-02-13T21:57:26.028Z,86.50
2018-02-13T22:00:00.669Z,86.80
2018-02-13T22:02:35.149Z,86.80
2018-02-13T22:05:09.552Z,87.10
2018-02-13T22:07:43.335Z,86.80
2018-02-13T22:10:17.984Z,86.70
2018-02-13T22:12:52.629Z,87.00
2018-02-13T22:15:27.301Z,87.00
2018-02-13T22:18:01.097Z,87.50
2018-02-13T22:20:36.360Z,87.20
2018-02-13T22:23:10.767Z,87.00
2018-02-13T22:25:44.006Z,86.50
2018-02-13T22:28:19.637Z,86.50
2018-02-13T22:30:57.331Z,86.60
2018-02-13T22:33:31.748Z,87.00
2018-02-13T22:36:05.621Z,87.20
2018-02-13T22:38:40.108Z,87.50
2018-02-13T22:41:18.402Z,87.30
2018-02-13T22:43:52.752Z,87.50
2018-02-13T22:46:27.116Z,87.60
2018-02-13T22:49:00.937Z,87.30
2018-02-13T22:51:40.969Z,87.60
2018-02-13T22:54:14.737Z,87.80
2018-02-13T22:56:51.001Z,88.50
2018-02-13T22:59:26.431Z,88.40
2018-02-13T23:02:07.341Z,89.20
2018-02-13T23:04:41.269Z,89.40
2018-02-13T23:07:15.271Z,89.40
2018-02-13T23:09:50.445Z,89.40
2018-02-13T23:12:28.617Z,89.30
2018-02-13T23:15:02.589Z,89.60
2018-02-13T23:17:37.515Z,89.60
2018-02-13T23:20:24.621Z,89.80
2018-02-13T23:22:58.954Z,89.80
2018-02-13T23:25:32.712Z,89.40
2018-02-13T23:28:07.228Z,89.80
2018-02-13T23:30:43.044Z,90.00
2018-02-13T23:33:16.827Z,89.80
2018-02-13T23:35:51.377Z,89.70
2018-02-13T23:38:25.352Z,90.10
2018-02-13T23:41:01.279Z,90.20
2018-02-13T23:43:35.606Z,90.10
2018-02-13T23:46:09.593Z,90.30
2018-02-13T23:48:43.790Z,90.20
2018-02-13T23:51:20.352Z,90.30
2018-02-13T23:53:54.337Z,90.50
2018-02-13T23:56:28.384Z,90.40
2018-02-13T23:59:01.985Z,90.80
